Time;durP1;ratioP1;P1;durP2;ratioP2;P2;SDS_P1;SDS_P2;PMS_P1;PMS_P2;Temp;Humidity;BMP_temperature;BMP_pressure;BME280_temperature;BME280_humidity;BME280_pressure;Samples;Min_cycle;Max_cycle;Signal;HPM_P1;HPM_P2
2021/12/27 00:00:04;;;;;;;19.77;7.65;;;;;;;-7.87;100.00;99862.47;1737857;81;21113;-66
2021/12/27 00:02:33;;;;;;;16.77;8.03;;;;;;;-7.81;100.00;99862.34;1731514;82;20979;-66
2021/12/27 00:05:00;;;;;;;17.82;8.18;;;;;;;-7.76;100.00;99860.92;1737424;81;21004;-66
2021/12/27 00:07:26;;;;;;;17.52;8.95;;;;;;;-7.73;100.00;99864.58;1729841;82;21009;-66
2021/12/27 00:09:52;;;;;;;19.57;9.85;;;;;;;-7.74;100.00;99862.08;1735229;82;21090;-67
2021/12/27 00:12:18;;;;;;;21.00;9.68;;;;;;;-7.70;100.00;99862.12;1739009;82;21537;-66
2021/12/27 00:14:45;;;;;;;;;;;;;;;-7.67;100.00;99862.64;1741059;81;21025;-66
2021/12/27 00:17:11;;;;;;;20.17;9.18;;;;;;;-7.62;100.00;99869.63;1737781;82;20123;-67
2021/12/27 00:19:38;;;;;;;;;;;;;;;-7.61;100.00;99869.11;1740405;81;21079;-66
2021/12/27 00:22:06;;;;;;;;;;;;;;;-7.57;100.00;99877.09;1738394;82;20107;-66
2021/12/27 00:24:32;;;;;;;20.25;9.80;;;;;;;-7.56;100.00;99874.30;1737551;81;20123;-67
2021/12/27 00:26:58;;;;;;;21.68;9.63;;;;;;;-7.54;100.00;99878.62;1738217;82;21455;-66
2021/12/27 00:29:24;;;;;;;23.55;10.72;;;;;;;-7.48;100.00;99881.47;1737818;82;21036;-66
2021/12/27 00:31:51;;;;;;;27.58;11.05;;;;;;;-7.44;100.00;99880.67;1737170;82;21490;-67
2021/12/27 00:34:17;;;;;;;22.60;11.20;;;;;;;-7.40;100.00;99888.64;1738019;82;21066;-66
2021/12/27 00:36:43;;;;;;;23.52;10.28;;;;;;;-7.36;100.00;99892.61;1737933;82;21523;-67
2021/12/27 00:39:10;;;;;;;23.30;10.85;;;;;;;-7.37;100.00;99887.84;1724549;81;21063;-66
2021/12/27 00:41:36;;;;;;;26.73;10.05;;;;;;;-7.38;100.00;99892.79;1733948;82;20960;-67
2021/12/27 00:44:03;;;;;;;21.15;9.75;;;;;;;-7.39;100.00;99882.34;1737880;82;21101;-66
2021/12/27 00:46:30;;;;;;;21.20;10.28;;;;;;;-7.40;100.00;99883.36;1737422;82;21070;-66
2021/12/27 00:48:56;;;;;;;24.12;10.18;;;;;;;-7.39;100.00;99882.34;1737829;81;21070;-66
2021/12/27 00:51:22;;;;;;;25.17;10.55;;;;;;;-7.37;100.00;99883.05;1724649;82;20995;-66
2021/12/27 00:53:48;;;;;;;25.30;10.40;;;;;;;-7.33;100.00;99887.05;1737222;81;21075;-67
2021/12/27 00:56:15;;;;;;;22.80;10.88;;;;;;;-7.28;100.00;99892.69;1738492;82;21526;-67
2021/12/27 00:58:41;;;;;;;24.57;11.88;;;;;;;-7.23;100.00;99891.26;1738263;82;21053;-67
2021/12/27 01:01:08;;;;;;;24.72;11.55;;;;;;;-7.18;100.00;99892.09;1738589;82;21465;-67
2021/12/27 01:03:35;;;;;;;22.17;10.70;;;;;;;-7.13;100.00;99885.86;1738074;81;21079;-67
2021/12/27 01:06:02;;;;;;;25.95;10.78;;;;;;;-7.08;100.00;99880.91;1738460;82;20991;-67
2021/12/27 01:09:24;;;;;;;26.17;11.75;;;;;;;-7.00;100.00;99877.00;1814508;77;22842;-66
2021/12/27 01:14:42;;;;;;;23.45;10.82;;;;;;;-6.95;100.00;99881.34;1775296;79;21671;-66
2021/12/27 01:16:57;;;;;;;22.95;11.12;;;;;;;-6.90;100.00;99884.33;1757662;80;21038;-66
2021/12/27 01:19:23;;;;;;;20.00;10.45;;;;;;;-6.85;100.00;99893.97;1763137;80;21042;-66
2021/12/27 01:21:50;;;;;;;19.92;10.40;;;;;;;-6.80;100.00;99894.31;1769224;80;21470;-66
2021/12/27 01:24:16;;;;;;;20.45;9.55;;;;;;;-6.75;100.00;99893.84;1773843;80;21021;-66
2021/12/27 01:26:42;;;;;;;19.45;9.60;;;;;;;-6.71;100.00;99896.03;1773400;80;21073;-66
2021/12/27 01:29:09;;;;;;;18.37;9.63;;;;;;;-6.66;100.00;99898.22;1769695;80;21078;-66
2021/12/27 01:31:36;;;;;;;17.48;9.35;;;;;;;-6.63;100.00;99901.87;1763222;80;20990;-66
2021/12/27 01:34:02;;;;;;;18.65;9.63;;;;;;;-6.60;100.00;99899.73;1768688;80;21596;-66
2021/12/27 01:36:32;;;;;;;19.10;9.15;;;;;;;-6.59;100.00;99902.70;1770152;80;21072;-66
2021/12/27 01:38:57;;;;;;;19.77;9.30;;;;;;;-6.62;100.00;99897.72;1735095;82;21126;-66
2021/12/27 01:41:23;;;;;;;18.48;8.90;;;;;;;-6.61;100.00;99901.20;1729188;83;21011;-66
2021/12/27 01:43:49;;;;;;;19.27;10.15;;;;;;;-6.58;100.00;99907.02;1727155;82;21559;-66
2021/12/27 01:46:20;;;;;;;17.75;8.75;;;;;;;-6.54;100.00;99907.52;1709654;83;21489;-66
2021/12/27 01:48:54;;;;;;;18.07;8.68;;;;;;;-6.50;100.00;99908.87;1712196;82;21612;-67
2021/12/27 01:51:19;;;;;;;18.57;9.03;;;;;;;-6.44;100.00;99908.23;1713489;83;21051;-66
2021/12/27 01:53:46;;;;;;;17.10;9.15;;;;;;;-6.40;100.00;99909.58;1705188;82;21063;-66
2021/12/27 01:56:14;;;;;;;17.23;9.65;;;;;;;-6.40;100.00;99904.28;1729681;83;21023;-66
2021/12/27 01:58:42;;;;;;;19.67;9.53;;;;;;;-6.45;100.00;99911.05;1726686;82;21476;-66
2021/12/27 02:01:10;;;;;;;17.35;9.08;;;;;;;-6.46;100.00;99906.73;1726729;82;21006;-66
2021/12/27 02:03:36;;;;;;;20.48;9.93;;;;;;;-6.45;100.00;99908.41;1714544;82;21086;-66
2021/12/27 02:06:05;;;;;;;21.87;10.45;;;;;;;-6.46;100.00;99910.70;1703981;83;21078;-66
2021/12/27 02:08:34;;;;;;;18.50;9.63;;;;;;;-6.42;100.00;99910.73;1722790;82;21620;-66
2021/12/27 02:11:19;;;;;;;21.45;10.40;;;;;;;-6.38;100.00;99914.73;1691763;83;21483;-66
2021/12/27 02:13:52;;;;;;;16.55;7.92;;;;;;;-6.36;100.00;99916.22;1690458;83;21084;-66
2021/12/27 02:16:21;;;;;;;23.38;10.88;;;;;;;-6.39;100.00;99905.11;1701022;83;21072;-66
2021/12/27 02:18:48;;;;;;;21.85;10.08;;;;;;;-6.40;100.00;99908.25;1697706;83;21042;-66
2021/12/27 02:21:15;;;;;;;23.87;11.12;;;;;;;-6.41;100.00;99907.11;1719802;82;21002;-66
2021/12/27 02:23:42;;;;;;;18.25;8.98;;;;;;;-6.37;100.00;99912.39;1728492;82;21818;-66
2021/12/27 02:26:09;;;;;;;19.00;9.65;;;;;;;-6.35;100.00;99904.64;1701226;82;21007;-66
2021/12/27 02:28:37;;;;;;;21.93;10.72;;;;;;;-6.34;100.00;99904.95;1726606;82;21050;-66
2021/12/27 02:31:03;;;;;;;18.37;8.60;;;;;;;-6.32;100.00;99913.59;1724198;82;21021;-66
2021/12/27 02:33:29;;;;;;;18.25;9.10;;;;;;;-6.38;100.00;99913.41;1722599;82;21070;-66
2021/12/27 02:35:58;;;;;;;18.30;8.73;;;;;;;-6.41;100.00;99911.88;1732746;82;21050;-66
2021/12/27 02:38:28;;;;;;;16.93;8.48;;;;;;;-6.43;100.00;99911.71;1728412;81;21061;-66
2021/12/27 02:40:56;;;;;;;19.50;8.80;;;;;;;-6.46;100.00;99912.03;1722520;82;21360;-66
2021/12/27 02:43:24;;;;;;;15.30;7.97;;;;;;;-6.47;100.00;99905.91;1708619;82;21549;-66
2021/12/27 02:45:54;;;;;;;15.58;8.73;;;;;;;-6.43;100.00;99911.71;1705656;82;21032;-66
2021/12/27 02:48:25;;;;;;;20.68;9.95;;;;;;;-6.45;100.00;99906.59;1697698;82;21054;-66
2021/12/27 02:50:52;;;;;;;18.73;9.03;;;;;;;-6.44;100.00;99911.37;1706833;82;21062;-66
2021/12/27 02:53:19;;;;;;;18.00;8.88;;;;;;;-6.47;100.00;99911.69;1691153;83;21700;-66
2021/12/27 02:55:48;;;;;;;15.28;9.35;;;;;;;-6.49;100.00;99917.16;1721968;82;21062;-66
2021/12/27 02:58:14;;;;;;;17.55;8.38;;;;;;;-6.56;100.00;99916.97;1719123;82;21067;-66
2021/12/27 03:00:47;;;;;;;;;;;;;;;-6.58;100.00;99916.28;1712226;82;21022;-66
2021/12/27 03:03:13;;;;;;;12.40;6.75;;;;;;;-6.60;100.00;99916.95;1724235;82;20116;-66
2021/12/27 03:05:41;;;;;;;18.20;8.40;;;;;;;-6.65;100.00;99925.01;1705295;84;21042;-66
2021/12/27 03:08:13;;;;;;;15.60;8.63;;;;;;;-6.65;100.00;99921.03;1730728;82;21086;-66
2021/12/27 03:10:36;;;;;;;18.62;8.03;;;;;;;-6.63;100.00;99924.37;1753086;81;21026;-66
2021/12/27 03:13:02;;;;;;;20.35;9.50;;;;;;;-6.59;100.00;99929.17;1748952;81;21051;-66
2021/12/27 03:15:29;;;;;;;16.32;8.08;;;;;;;-6.56;100.00;99924.08;1749241;81;21058;-66
2021/12/27 03:17:56;;;;;;;16.05;8.63;;;;;;;-6.53;100.00;99929.05;1748663;81;21071;-66
2021/12/27 03:20:25;;;;;;;16.30;9.80;;;;;;;-6.55;100.00;99923.91;1761438;81;21020;-66
2021/12/27 03:22:52;;;;;;;17.40;9.55;;;;;;;-6.57;100.00;99927.70;1762814;80;21426;-66
2021/12/27 03:25:21;;;;;;;17.07;9.43;;;;;;;-6.58;100.00;99931.33;1761681;81;21076;-66
2021/12/27 03:27:48;;;;;;;15.35;8.38;;;;;;;-6.56;100.00;99932.86;1758035;81;21103;-66
2021/12/27 03:30:19;;;;;;;19.23;9.40;;;;;;;-6.54;100.00;99939.30;1753606;80;21526;-66
2021/12/27 03:32:46;;;;;;;19.10;8.83;;;;;;;-6.52;100.00;99937.84;1750030;81;21513;-66
2021/12/27 03:35:15;;;;;;;18.35;9.18;;;;;;;-6.54;100.00;99943.27;1757601;81;21107;-67
2021/12/27 03:37:48;;;;;;;17.87;8.73;;;;;;;-6.55;100.00;99941.12;1746191;81;21043;-66
2021/12/27 03:40:16;;;;;;;16.07;8.03;;;;;;;-6.53;100.00;99946.76;1751666;81;21059;-66
2021/12/27 03:42:42;;;;;;;15.13;8.13;;;;;;;-6.51;100.00;99943.45;1761242;81;20955;-66
2021/12/27 03:45:10;;;;;;;15.20;8.20;;;;;;;-6.48;100.00;99951.91;1749262;81;21125;-66
2021/12/27 03:47:37;;;;;;;17.80;9.50;;;;;;;-6.42;100.00;99947.33;1763555;81;21000;-66
2021/12/27 03:50:05;;;;;;;15.90;7.95;;;;;;;-6.41;100.00;99950.28;1758729;81;21047;-67
2021/12/27 03:52:32;;;;;;;17.02;8.43;;;;;;;-6.41;100.00;99948.96;1764944;81;21024;-67
2021/12/27 03:54:58;;;;;;;18.65;8.30;;;;;;;-6.37;100.00;99955.61;1708398;83;21131;-67
2021/12/27 03:57:25;;;;;;;16.05;7.65;;;;;;;-6.38;100.00;99954.46;1764964;81;21505;-67
2021/12/27 04:00:15;;;;;;;16.48;8.50;;;;;;;-6.35;100.00;99960.27;1757338;81;21036;-67
2021/12/27 04:02:21;;;;;;;14.33;7.62;;;;;;;-6.31;100.00;99958.97;1743126;81;21545;-66
2021/12/27 04:04:47;;;;;;;15.48;7.80;;;;;;;-6.26;100.00;99964.61;1746449;81;21138;-66
2021/12/27 04:07:14;;;;;;;18.42;8.88;;;;;;;-6.26;100.00;99953.17;1738766;81;21038;-67
2021/12/27 04:09:40;;;;;;;15.65;8.38;;;;;;;-6.26;100.00;99954.50;1748044;81;21652;-66
2021/12/27 04:12:08;;;;;;;15.40;7.70;;;;;;;-6.23;100.00;99958.15;1745393;81;21027;-66
2021/12/27 04:14:36;;;;;;;14.85;7.95;;;;;;;-6.15;100.00;99964.81;1759985;81;21079;-67
2021/12/27 04:17:03;;;;;;;14.40;7.95;;;;;;;-6.07;100.00;99967.51;1759601;81;21020;-67
2021/12/27 04:19:29;;;;;;;14.90;8.38;;;;;;;-6.02;100.00;99971.81;1758285;81;21052;-66
2021/12/27 04:21:56;;;;;;;;;;;;;;;-5.96;100.00;99975.66;1768422;81;21074;-66
2021/12/27 04:24:22;;;;;;;16.52;8.03;;;;;;;-5.92;100.00;99972.55;1755403;81;20113;-66
2021/12/27 04:26:48;;;;;;;16.60;8.30;;;;;;;-5.91;100.00;99982.13;1756076;81;21062;-67
2021/12/27 04:29:15;;;;;;;14.63;8.45;;;;;;;-5.89;100.00;99986.80;1752616;80;21060;-66
2021/12/27 04:31:43;;;;;;;16.55;8.13;;;;;;;-5.90;100.00;99989.11;1750789;81;21026;-67
2021/12/27 04:34:10;;;;;;;14.78;8.18;;;;;;;-5.90;100.00;99989.59;1746260;81;21068;-66
2021/12/27 04:36:36;;;;;;;16.12;8.45;;;;;;;-5.88;100.00;99992.94;1741143;81;21462;-67
2021/12/27 04:39:03;;;;;;;19.60;8.80;;;;;;;-5.85;100.00;99997.39;1749259;81;21012;-66
2021/12/27 04:41:30;;;;;;;17.02;9.35;;;;;;;-5.80;100.00;99995.56;1744045;81;20970;-67
2021/12/27 04:43:56;;;;;;;14.55;9.10;;;;;;;-5.77;100.00;100005.34;1749631;80;21062;-67
2021/12/27 04:46:23;;;;;;;13.98;8.45;;;;;;;-5.75;100.00;100003.38;1760052;81;21011;-67
2021/12/27 04:48:52;;;;;;;14.10;8.23;;;;;;;-5.75;100.00;100006.03;1741639;81;21055;-66
2021/12/27 04:51:20;;;;;;;17.60;9.30;;;;;;;-5.75;100.00;100010.50;1744317;81;21028;-66
2021/12/27 04:53:49;;;;;;;22.25;9.30;;;;;;;-5.78;100.00;100006.36;1757322;80;21090;-67
2021/12/27 04:56:16;;;;;;;17.12;8.75;;;;;;;-5.77;100.00;100011.14;1732696;81;21491;-67
2021/12/27 04:58:46;;;;;;;16.05;9.60;;;;;;;-5.78;100.00;100013.48;1758320;81;21094;-67
2021/12/27 05:01:14;;;;;;;18.30;9.30;;;;;;;-5.77;100.00;100015.12;1731671;81;21518;-66
2021/12/27 05:03:40;;;;;;;17.32;9.78;;;;;;;-5.76;100.00;100014.97;1740779;81;21071;-67
2021/12/27 05:06:07;;;;;;;19.02;10.25;;;;;;;-5.71;100.00;100025.11;1745070;81;21589;-67
2021/12/27 05:08:33;;;;;;;16.10;9.05;;;;;;;-5.70;100.00;100017.47;1744048;81;21068;-67
2021/12/27 05:11:00;;;;;;;19.23;10.25;;;;;;;-5.67;100.00;100017.97;1743027;81;21011;-67
2021/12/27 05:13:26;;;;;;;15.98;9.00;;;;;;;-5.67;100.00;100017.17;1749466;81;21558;-67
2021/12/27 05:15:53;;;;;;;19.35;9.68;;;;;;;-5.67;100.00;100020.63;1753936;81;21055;-66
2021/12/27 05:18:19;;;;;;;17.60;9.55;;;;;;;-5.67;100.00;100023.27;1757768;81;20980;-66
2021/12/27 05:20:46;;;;;;;18.37;9.45;;;;;;;-5.66;100.00;100033.39;1750761;81;21004;-66
2021/12/27 05:23:12;;;;;;;17.37;8.88;;;;;;;-5.67;100.00;100030.43;1759273;81;21031;-67
2021/12/27 05:25:38;;;;;;;17.98;9.48;;;;;;;-5.72;100.00;100030.91;1756702;81;21043;-66
2021/12/27 05:28:05;;;;;;;17.98;9.23;;;;;;;-5.70;100.00;100036.86;1753834;81;21011;-66
2021/12/27 05:30:33;;;;;;;20.55;12.40;;;;;;;-5.68;100.00;100037.55;1745888;81;21565;-67
2021/12/27 05:33:00;;;;;;;19.40;10.85;;;;;;;-5.67;100.00;100041.84;1744076;82;21052;-67
2021/12/27 05:35:26;;;;;;;18.82;10.03;;;;;;;-5.65;100.00;100039.04;1747189;81;21078;-67
2021/12/27 05:37:53;;;;;;;17.60;9.20;;;;;;;-5.68;100.00;100046.83;1741781;81;21003;-67
2021/12/27 05:40:22;;;;;;;16.62;9.28;;;;;;;-5.71;100.00;100050.30;1751221;81;21044;-66
2021/12/27 05:42:50;;;;;;;16.30;9.60;;;;;;;-5.75;100.00;100052.93;1753007;81;21038;-67
2021/12/27 05:45:16;;;;;;;17.12;9.38;;;;;;;-5.80;100.00;100065.33;1744025;81;21068;-67
2021/12/27 05:47:43;;;;;;;19.20;9.63;;;;;;;-5.92;100.00;100060.02;1751020;81;21565;-66
2021/12/27 05:50:10;;;;;;;16.27;9.48;;;;;;;-6.03;100.00;100062.95;1740414;81;21079;-67
2021/12/27 05:52:37;;;;;;;17.32;9.28;;;;;;;-6.07;100.00;100066.41;1743730;81;21502;-66
2021/12/27 05:55:04;;;;;;;16.75;9.05;;;;;;;-6.09;100.00;100071.02;1754664;81;21044;-66
2021/12/27 05:57:31;;;;;;;20.40;10.72;;;;;;;-6.13;100.00;100070.19;1760683;81;21012;-67
2021/12/27 05:59:58;;;;;;;22.13;12.00;;;;;;;-6.20;100.00;100078.42;1716767;83;21056;-66
2021/12/27 06:02:25;;;;;;;19.07;10.72;;;;;;;-6.23;100.00;100081.36;1753602;81;20999;-66
2021/12/27 06:04:51;;;;;;;17.70;9.73;;;;;;;-6.25;100.00;100084.67;1755000;81;21083;-66
2021/12/27 06:07:18;;;;;;;20.15;10.45;;;;;;;-6.25;100.00;100085.51;1743716;81;21548;-67
2021/12/27 06:09:44;;;;;;;17.23;10.13;;;;;;;-6.26;100.00;100085.16;1753744;81;21554;-67
2021/12/27 06:12:11;;;;;;;22.60;11.48;;;;;;;-6.27;100.00;100086.66;1765762;81;21035;-67
2021/12/27 06:14:38;;;;;;;18.87;10.90;;;;;;;-6.30;100.00;100089.11;1759859;80;21044;-67
2021/12/27 06:17:04;;;;;;;16.85;10.05;;;;;;;-6.27;100.00;100092.77;1754095;81;20980;-67
2021/12/27 06:19:30;;;;;;;17.95;8.85;;;;;;;-6.24;100.00;100088.99;1744530;81;21523;-66
2021/12/27 06:21:57;;;;;;;20.88;11.10;;;;;;;-6.19;100.00;100095.96;1744526;81;20998;-67
2021/12/27 06:24:23;;;;;;;20.35;10.75;;;;;;;-6.21;100.00;100094.81;1751821;81;21593;-67
2021/12/27 06:26:49;;;;;;;18.30;9.10;;;;;;;-6.19;100.00;100095.96;1764640;81;21003;-66
2021/12/27 06:29:16;;;;;;;21.23;11.12;;;;;;;-6.17;100.00;100092.19;1761892;81;21035;-67
2021/12/27 06:31:42;;;;;;;19.35;10.65;;;;;;;-6.18;100.00;100092.33;1761353;81;21036;-67
2021/12/27 06:34:09;;;;;;;21.15;10.25;;;;;;;-6.17;100.00;100095.33;1745773;81;21119;-67
2021/12/27 06:36:35;;;;;;;20.57;10.68;;;;;;;-6.19;100.00;100094.15;1757548;81;21513;-67
2021/12/27 06:39:03;;;;;;;18.70;10.32;;;;;;;-6.17;100.00;100096.17;1748762;81;21098;-66
2021/12/27 06:41:30;;;;;;;17.45;9.03;;;;;;;-6.17;100.00;100105.94;1738306;81;21014;-66
2021/12/27 06:43:56;;;;;;;18.27;9.40;;;;;;;-6.17;100.00;100103.28;1747633;81;21561;-66
2021/12/27 06:46:23;;;;;;;22.67;12.78;;;;;;;-6.21;100.00;100103.25;1738125;82;21007;-67
2021/12/27 06:48:49;;;;;;;19.90;11.28;;;;;;;-6.28;100.00;100109.67;1743088;81;21067;-66
2021/12/27 06:51:16;;;;;;;18.70;11.45;;;;;;;-6.29;100.00;100106.67;1752393;82;20989;-66
2021/12/27 06:53:42;;;;;;;19.37;10.80;;;;;;;-6.27;100.00;100112.63;1750724;81;21106;-66
2021/12/27 06:56:08;;;;;;;19.12;11.43;;;;;;;-6.24;100.00;100115.49;1762753;81;20991;-66
2021/12/27 06:58:36;;;;;;;17.32;9.70;;;;;;;-6.23;100.00;100114.48;1751206;81;21571;-67
2021/12/27 07:01:03;;;;;;;18.27;9.58;;;;;;;-6.21;100.00;100113.85;1745317;81;21342;-67
2021/12/27 07:03:30;;;;;;;17.82;11.08;;;;;;;-6.19;100.00;100118.48;1746757;82;21112;-66
2021/12/27 07:05:56;;;;;;;17.62;10.30;;;;;;;-6.20;100.00;100122.15;1748689;81;21602;-66
2021/12/27 07:08:23;;;;;;;20.05;12.07;;;;;;;-6.18;100.00;100118.34;1755172;81;21011;-66
2021/12/27 07:10:50;;;;;;;18.70;10.58;;;;;;;-6.13;100.00;100119.21;1754570;81;21551;-66
2021/12/27 07:13:16;;;;;;;22.32;12.05;;;;;;;-6.07;100.00;100121.23;1767038;80;20984;-66
2021/12/27 07:15:42;;;;;;;23.18;12.10;;;;;;;-6.02;100.00;100124.75;1762901;80;21019;-66
2021/12/27 07:18:10;;;;;;;22.40;12.23;;;;;;;-6.01;100.00;100131.69;1753274;81;20987;-67
2021/12/27 07:20:36;;;;;;;22.73;12.75;;;;;;;-6.05;100.00;100134.66;1760727;80;21017;-66
2021/12/27 07:23:04;;;;;;;26.82;13.65;;;;;;;-6.05;100.00;100132.00;1757019;81;20954;-66
2021/12/27 07:25:31;;;;;;;23.67;13.68;;;;;;;-6.03;100.00;100130.53;1728122;82;21072;-66
2021/12/27 07:27:57;;;;;;;;;;;;;;;-5.98;100.00;100138.83;1728128;83;21043;-66
2021/12/27 07:30:24;;;;;;;25.23;12.33;;;;;;;-5.93;100.00;100138.38;1741094;81;20539;-66
2021/12/27 07:32:50;;;;;;;;;;;;;;;-5.93;100.00;100139.21;1743669;81;21159;-66
2021/12/27 07:35:16;;;;;;;22.48;12.88;;;;;;;-5.92;100.00;100137.39;1726003;82;20097;-66
2021/12/27 07:37:43;;;;;;;;;;;;;;;-5.92;100.00;100133.42;1751049;81;21015;-67
2021/12/27 07:40:10;;;;;;;28.42;14.10;;;;;;;-5.88;100.00;100134.77;1752551;81;20393;-66
2021/12/27 07:42:37;;;;;;;21.25;11.48;;;;;;;-5.87;100.00;100141.23;1749437;82;21055;-66
2021/12/27 07:45:06;;;;;;;20.77;11.65;;;;;;;-5.85;100.00;100145.86;1757761;80;21096;-66
2021/12/27 07:47:33;;;;;;;20.68;11.55;;;;;;;-5.87;100.00;100141.23;1761493;80;21439;-66
2021/12/27 07:50:00;;;;;;;22.98;12.98;;;;;;;-5.87;100.00;100147.86;1748773;81;21045;-66
2021/12/27 07:52:26;;;;;;;22.82;12.18;;;;;;;-5.84;100.00;100144.02;1754590;81;21008;-67
2021/12/27 07:54:53;;;;;;;21.17;12.07;;;;;;;-5.80;100.00;100150.19;1751710;82;21109;-69
2021/12/27 07:57:19;;;;;;;21.62;11.45;;;;;;;-5.74;100.00;100152.72;1746524;81;20995;-67
2021/12/27 07:59:49;;;;;;;19.98;11.25;;;;;;;-5.69;100.00;100147.75;1739005;81;22447;-66
2021/12/27 08:02:16;;;;;;;21.35;10.38;;;;;;;-5.70;100.00;100156.69;1761359;81;21438;-67
2021/12/27 08:04:43;;;;;;;17.48;10.13;;;;;;;-5.70;100.00;100146.08;1762499;80;21070;-65
2021/12/27 08:07:10;;;;;;;22.75;12.13;;;;;;;-5.68;100.00;100150.75;1770297;81;20971;-66
2021/12/27 08:09:37;;;;;;;19.12;10.40;;;;;;;-5.68;100.00;100152.08;1752326;81;21629;-67
2021/12/27 08:12:05;;;;;;;17.12;10.75;;;;;;;-5.63;100.00;100148.44;1762696;80;21005;-68
2021/12/27 08:14:31;;;;;;;19.40;10.95;;;;;;;-5.61;100.00;100148.64;1727445;83;21060;-67
2021/12/27 08:16:57;;;;;;;17.82;10.30;;;;;;;-5.61;100.00;100152.63;1723881;83;21059;-67
2021/12/27 08:19:25;;;;;;;18.20;9.88;;;;;;;-5.58;100.00;100152.30;1718359;83;21638;-67
2021/12/27 08:21:52;;;;;;;19.12;9.93;;;;;;;-5.54;100.00;100147.02;1760733;81;20984;-67
2021/12/27 08:24:18;;;;;;;20.32;10.25;;;;;;;-5.52;100.00;100156.97;1753288;80;21061;-65
2021/12/27 08:26:45;;;;;;;19.40;10.80;;;;;;;-5.45;100.00;100158.48;1755820;81;21516;-64
2021/12/27 08:29:12;;;;;;;16.32;8.98;;;;;;;-5.40;100.00;100163.31;1764149;81;21039;-66
2021/12/27 08:31:38;;;;;;;17.05;9.83;;;;;;;-5.36;100.00;100162.02;1755886;81;21566;-65
2021/12/27 08:34:05;;;;;;;17.77;9.38;;;;;;;-5.34;100.00;100164.00;1764125;80;21081;-66
2021/12/27 08:36:32;;;;;;;20.57;10.85;;;;;;;-5.34;100.00;100163.51;1770349;81;20964;-67
2021/12/27 08:38:58;;;;;;;18.87;10.40;;;;;;;-5.34;100.00;100157.36;1751760;81;21502;-66
2021/12/27 08:41:27;;;;;;;22.93;11.43;;;;;;;-5.34;100.00;100160.86;1756048;81;21031;-67
2021/12/27 08:44:04;;;;;;;17.85;10.60;;;;;;;-5.34;100.00;100158.20;1750763;81;21545;-66
2021/12/27 08:46:34;;;;;;;17.80;9.90;;;;;;;-5.31;100.00;100158.37;1748060;82;20975;-67
2021/12/27 08:49:01;;;;;;;21.02;10.90;;;;;;;-5.30;100.00;100154.73;1751902;81;21063;-67
2021/12/27 08:51:27;;;;;;;17.62;9.30;;;;;;;-5.29;100.00;100149.28;1751134;81;21141;-66
2021/12/27 08:53:53;;;;;;;19.67;10.85;;;;;;;-5.29;100.00;100144.46;1749849;81;21094;-67
2021/12/27 08:56:20;;;;;;;16.57;9.78;;;;;;;-5.32;100.00;100145.63;1749845;81;21035;-67
2021/12/27 08:58:47;;;;;;;23.15;13.45;;;;;;;-5.40;100.00;100150.05;1703114;84;21073;-67
2021/12/27 09:01:13;;;;;;;21.80;11.50;;;;;;;-5.47;100.00;100147.20;1715318;83;21070;-65
2021/12/27 09:03:39;;;;;;;;;;;;;;;-5.47;100.00;100147.70;1714814;83;21540;-65
2021/12/27 09:06:06;;;;;;;21.33;12.73;;;;;;;-5.44;100.00;100142.07;1706708;83;20154;-66
2021/12/27 09:08:34;;;;;;;24.70;11.78;;;;;;;-5.50;100.00;100140.90;1713370;83;21026;-67
2021/12/27 09:11:00;;;;;;;22.67;12.63;;;;;;;-5.46;100.00;100144.91;1763862;81;21024;-66
2021/12/27 09:13:28;;;;;;;24.55;12.78;;;;;;;-5.43;100.00;100137.11;1748055;81;21191;-70
2021/12/27 09:15:55;;;;;;;27.87;13.58;;;;;;;-5.46;100.00;100135.62;1768339;81;21039;-68
2021/12/27 09:18:22;;;;;;;21.35;12.93;;;;;;;-5.44;100.00;100134.11;1768292;80;20960;-68
2021/12/27 09:20:49;;;;;;;27.27;13.05;;;;;;;-5.34;100.00;100134.81;1758704;81;21057;-68
2021/12/27 09:23:15;;;;;;;25.10;14.55;;;;;;;-5.26;100.00;100130.38;1742599;81;20996;-68
2021/12/27 09:25:44;;;;;;;21.80;11.55;;;;;;;-5.19;100.00;100130.56;1757088;81;21046;-67
2021/12/27 09:28:11;;;;;;;27.55;15.15;;;;;;;-5.11;100.00;100127.94;1723253;82;21519;-68
2021/12/27 09:30:37;;;;;;;21.97;12.47;;;;;;;-5.03;100.00;100131.42;1764730;81;20984;-68
2021/12/27 09:33:05;;;;;;;22.22;12.65;;;;;;;-5.03;100.00;100125.31;1763114;81;20999;-66
2021/12/27 09:35:33;;;;;;;19.92;11.65;;;;;;;-5.07;100.00;100127.45;1752710;81;21573;-69
2021/12/27 09:38:00;;;;;;;;;;;;;;;-5.09;100.00;100131.24;1761619;81;21078;-68
2021/12/27 09:40:26;;;;;;;22.42;12.88;;;;;;;-5.10;100.00;100133.06;1757110;81;20443;-68
2021/12/27 09:42:53;;;;;;;22.32;12.73;;;;;;;-5.15;100.00;100124.77;1728050;81;21062;-68
2021/12/27 09:45:20;;;;;;;;;;;;;;;-5.14;100.00;100130.42;1744238;81;21636;-68
2021/12/27 09:47:50;;;;;;;19.45;11.30;;;;;;;-5.09;100.00;100138.72;1742587;81;20159;-67
2021/12/27 09:50:25;;;;;;;21.05;10.98;;;;;;;-5.09;100.00;100141.86;1766586;80;21012;-68
2021/12/27 09:52:51;;;;;;;18.90;11.95;;;;;;;-5.10;100.00;100139.70;1759780;81;21493;-68
2021/12/27 09:55:18;;;;;;;19.70;10.55;;;;;;;-5.11;100.00;100142.05;1742835;80;21078;-67
2021/12/27 09:57:44;;;;;;;18.17;9.95;;;;;;;-5.11;100.00;100138.06;1741450;81;21034;-68
2021/12/27 10:00:14;;;;;;;19.52;11.10;;;;;;;-5.10;100.00;100138.38;1741837;81;21079;-68
2021/12/27 10:02:40;;;;;;;21.23;11.78;;;;;;;-5.10;100.00;100135.72;1741331;81;20987;-69
2021/12/27 10:05:08;;;;;;;18.57;10.68;;;;;;;-5.09;100.00;100129.91;1731461;82;21691;-67
2021/12/27 10:07:41;;;;;;;19.70;12.03;;;;;;;-5.08;100.00;100136.41;1697002;82;20987;-65
2021/12/27 10:10:06;;;;;;;18.40;11.30;;;;;;;-5.07;100.00;100135.91;1723667;81;21062;-66
2021/12/27 10:12:32;;;;;;;21.80;11.43;;;;;;;-5.05;100.00;100134.75;1727564;81;21035;-66
2021/12/27 10:15:00;;;;;;;18.55;11.38;;;;;;;-4.97;100.00;100129.13;1748137;81;21055;-64
2021/12/27 10:17:34;;;;;;;17.05;10.55;;;;;;;-4.92;100.00;100132.94;1746173;81;21362;-66
2021/12/27 10:20:21;;;;;;;18.50;10.28;;;;;;;-4.88;100.00;100128.97;1751856;82;21549;-66
2021/12/27 10:22:53;;;;;;;23.40;13.62;;;;;;;-4.80;100.00;100138.28;1740375;81;21020;-66
2021/12/27 10:25:25;;;;;;;24.02;12.25;;;;;;;-4.76;100.00;100144.10;1752323;80;21085;-65
2021/12/27 10:27:55;;;;;;;21.02;13.35;;;;;;;-4.75;100.00;100142.63;1763648;81;21051;-66
2021/12/27 10:30:28;;;;;;;24.80;13.68;;;;;;;-4.73;100.00;100138.45;1747242;80;21036;-66
2021/12/27 10:33:23;;;;;;;25.12;14.47;;;;;;;-4.71;100.00;100147.11;1758432;81;21499;-65
2021/12/27 10:35:53;;;;;;;27.80;15.90;;;;;;;-4.70;100.00;100146.93;1750568;81;21019;-67
2021/12/27 10:38:24;;;;;;;23.47;14.40;;;;;;;-4.71;100.00;100145.26;1767019;81;21068;-65
2021/12/27 10:40:59;;;;;;;18.77;11.15;;;;;;;-4.71;100.00;100137.29;1742295;81;21099;-67
2021/12/27 10:43:43;;;;;;;22.98;13.58;;;;;;;-4.74;100.00;100141.61;1738221;82;21004;-67
2021/12/27 10:46:17;;;;;;;24.98;13.85;;;;;;;-4.83;100.00;100141.27;1765977;81;21052;-67
2021/12/27 10:48:57;;;;;;;22.32;11.48;;;;;;;-4.88;100.00;100140.08;1672753;85;21020;-67
2021/12/27 10:51:27;;;;;;;21.62;11.57;;;;;;;-4.89;100.00;100149.90;1766318;81;21062;-68
2021/12/27 10:53:59;;;;;;;20.00;11.97;;;;;;;-4.87;100.00;100142.59;1754643;81;21094;-68
2021/12/27 10:56:28;;;;;;;20.10;11.15;;;;;;;-4.88;100.00;100142.25;1765904;81;21008;-67
2021/12/27 10:58:58;;;;;;;25.55;13.20;;;;;;;-4.83;100.00;100140.44;1747172;81;21012;-67
2021/12/27 11:01:26;;;;;;;20.72;12.23;;;;;;;-4.82;100.00;100141.62;1761291;81;21003;-66
2021/12/27 11:03:57;;;;;;;24.75;13.15;;;;;;;-4.80;100.00;100136.13;1751946;81;21123;-65
2021/12/27 11:06:26;;;;;;;21.27;12.18;;;;;;;-4.79;100.00;100126.67;1745092;81;21511;-67
2021/12/27 11:08:54;;;;;;;34.27;22.48;;;;;;;-4.82;100.00;100144.27;1746457;81;20999;-66
2021/12/27 11:11:23;;;;;;;18.95;11.97;;;;;;;-4.82;100.00;100136.30;1754816;81;21620;-66
2021/12/27 11:13:52;;;;;;;21.70;12.40;;;;;;;-4.82;100.00;100137.63;1766191;81;21075;-66
2021/12/27 11:16:19;;;;;;;21.35;12.78;;;;;;;-4.90;100.00;100136.28;1761096;81;20995;-67